Time;durP1;ratioP1;P1;durP2;ratioP2;P2;SDS_P1;SDS_P2;PMS_P1;PMS_P2;Temp;Humidity;BMP_temperature;BMP_pressure;BME280_temperature;BME280_humidity;BME280_pressure;Samples;Min_cycle;Max_cycle;Signal;HPM_P1;HPM_P2
2022/11/11 00:01:01;;;;;;;8.07;2.40;;;4.50;70.40;;;;;;5033901;28;20038;-69
2022/11/11 00:03:28;;;;;;;8.20;2.70;;;4.50;70.10;;;;;;5015366;28;20034;-68
2022/11/11 00:05:53;;;;;;;6.97;3.05;;;4.50;70.10;;;;;;5032244;28;20033;-67
2022/11/11 00:08:22;;;;;;;8.65;3.00;;;4.40;71.60;;;;;;5024775;28;20018;-68
2022/11/11 00:10:50;;;;;;;7.28;3.42;;;4.40;69.70;;;;;;5027840;28;20025;-68
2022/11/11 00:13:18;;;;;;;10.23;3.17;;;4.40;70.30;;;;;;5032881;28;20036;-68
2022/11/11 00:15:44;;;;;;;10.65;3.30;;;4.50;69.10;;;;;;5033129;28;20017;-68
2022/11/11 00:26:34;;;;;;;8.38;3.00;;;4.50;70.40;;;;;;5007131;28;20040;-68
2022/11/11 00:28:59;;;;;;;8.65;3.00;;;4.50;70.50;;;;;;5037346;28;20112;-68
2022/11/11 00:31:25;;;;;;;8.93;2.75;;;4.50;69.90;;;;;;5034583;28;20040;-68
2022/11/11 00:33:53;;;;;;;6.47;2.22;;;4.40;71.10;;;;;;5035860;28;20041;-68
2022/11/11 00:36:18;;;;;;;8.73;3.60;;;4.50;69.10;;;;;;5022358;28;20303;-69
2022/11/11 00:38:44;;;;;;;9.65;2.30;;;4.40;72.00;;;;;;5033279;28;20032;-67
2022/11/11 00:41:20;;;;;;;3.85;2.00;;;4.30;70.80;;;;;;5043064;28;20037;-67
2022/11/11 00:43:46;;;;;;;7.03;2.30;;;4.20;72.10;;;;;;5032827;28;20033;-67
2022/11/11 00:51:43;;;;;;;6.13;2.53;;;4.00;73.50;;;;;;5026966;28;20179;-69
2022/11/11 00:54:09;;;;;;;6.45;2.92;;;3.90;70.40;;;;;;5033755;28;20025;-68
2022/11/11 00:56:35;;;;;;;10.40;3.20;;;4.00;70.10;;;;;;5030730;28;20040;-68
2022/11/11 00:59:08;;;;;;;6.43;3.03;;;3.90;70.70;;;;;;5035111;28;20061;-68
2022/11/11 01:01:37;;;;;;;7.93;3.50;;;3.90;70.40;;;;;;5024296;28;20025;-68
2022/11/11 01:04:06;;;;;;;11.98;3.38;;;4.00;68.90;;;;;;5033636;28;20029;-67
2022/11/11 01:06:32;;;;;;;9.23;3.15;;;4.10;68.60;;;;;;5041439;28;20026;-67
2022/11/11 01:09:05;;;;;;;8.65;3.80;;;4.20;67.80;;;;;;5039787;28;20421;-67
2022/11/11 01:11:32;;;;;;;9.02;3.53;;;4.10;69.20;;;;;;5031158;28;20057;-67
2022/11/11 01:13:59;;;;;;;8.98;3.92;;;4.10;68.60;;;;;;5035301;28;20017;-67
2022/11/11 01:16:26;;;;;;;8.55;3.83;;;4.10;67.50;;;;;;5029525;28;20014;-67
2022/11/11 01:18:54;;;;;;;9.70;3.28;;;4.10;68.40;;;;;;5028639;28;20022;-67
2022/11/11 01:21:23;;;;;;;10.05;3.30;;;4.00;69.10;;;;;;5017114;28;20350;-67
2022/11/11 01:23:50;;;;;;;6.47;2.45;;;4.00;68.50;;;;;;5032740;28;20029;-67
2022/11/11 01:26:21;;;;;;;9.18;3.63;;;3.90;67.60;;;;;;5032516;28;20049;-67
2022/11/11 01:28:52;;;;;;;6.90;2.78;;;4.00;67.30;;;;;;5035777;28;20044;-67
2022/11/11 01:31:20;;;;;;;6.40;2.92;;;4.10;67.10;;;;;;5033779;28;20445;-67
2022/11/11 01:33:46;;;;;;;8.35;4.18;;;4.10;67.40;;;;;;5027409;28;20041;-67
2022/11/11 01:36:16;;;;;;;14.80;4.03;;;4.00;68.50;;;;;;5012566;28;20034;-67
2022/11/11 01:38:45;;;;;;;7.95;3.53;;;3.90;68.60;;;;;;5035550;28;20080;-68
2022/11/11 01:43:59;;;;;;;11.52;3.25;;;3.70;68.80;;;;;;5024870;28;20033;-68
2022/11/11 01:46:28;;;;;;;6.65;2.90;;;3.70;68.00;;;;;;5023080;28;20061;-68
2022/11/11 01:49:18;;;;;;;6.97;3.67;;;3.70;67.30;;;;;;5028081;28;20100;-68
2022/11/11 01:51:55;;;;;;;11.80;3.40;;;3.80;67.30;;;;;;5029095;28;20527;-68
2022/11/11 01:54:24;;;;;;;8.52;2.85;;;3.80;67.30;;;;;;5044412;28;20463;-68
2022/11/11 01:56:54;;;;;;;6.90;3.17;;;3.80;67.60;;;;;;5011904;28;20096;-69
2022/11/11 01:59:20;;;;;;;9.57;3.90;;;3.80;67.90;;;;;;5026049;28;20025;-68
2022/11/11 02:01:47;;;;;;;4.53;2.53;;;3.70;68.00;;;;;;5032899;28;20037;-69
2022/11/11 02:07:06;;;;;;;11.68;4.05;;;3.50;67.70;;;;;;5025621;28;20048;-68
2022/11/11 02:09:40;;;;;;;8.68;3.47;;;3.50;67.20;;;;;;5033590;28;20022;-68
2022/11/11 02:14:58;;;;;;;9.88;4.00;;;3.40;67.20;;;;;;5028242;28;20388;-67
2022/11/11 02:17:26;;;;;;;12.23;5.93;;;3.60;66.20;;;;;;5032970;28;20152;-68
2022/11/11 02:19:57;;;;;;;6.32;3.40;;;3.70;66.60;;;;;;5030981;28;20104;-68
2022/11/11 02:22:59;;;;;;;10.05;4.15;;;3.50;67.50;;;;;;5032424;28;20022;-68
2022/11/11 02:25:28;;;;;;;10.00;4.45;;;3.40;67.70;;;;;;5042973;28;20037;-68
2022/11/11 02:27:59;;;;;;;10.35;4.82;;;3.30;67.30;;;;;;5028733;28;20533;-68
2022/11/11 02:30:28;;;;;;;9.02;3.38;;;3.20;67.50;;;;;;5029610;28;20064;-68
2022/11/11 02:32:57;;;;;;;9.38;4.30;;;3.20;66.50;;;;;;5022211;28;20021;-67
2022/11/11 02:35:39;;;;;;;9.43;3.42;;;3.30;66.20;;;;;;5011019;28;20032;-68
2022/11/11 02:38:07;;;;;;;8.32;3.92;;;3.20;66.70;;;;;;5024606;28;20022;-67
2022/11/11 02:41:55;;;;;;;5.57;3.40;;;3.40;65.50;;;;;;5032829;28;20027;-69
2022/11/11 02:43:32;;;;;;;8.70;4.35;;;3.60;65.40;;;;;;5024497;28;20033;-68
2022/11/11 02:46:01;;;;;;;8.25;3.33;;;3.60;65.80;;;;;;5029300;28;20051;-68
2022/11/11 02:48:30;;;;;;;6.65;2.97;;;3.50;66.20;;;;;;5009813;28;20033;-68
2022/11/11 02:50:57;;;;;;;11.80;4.60;;;3.60;65.60;;;;;;5029643;28;20026;-68
2022/11/11 02:53:23;;;;;;;7.13;3.90;;;3.60;65.90;;;;;;5031679;28;20415;-67
2022/11/11 02:55:58;;;;;;;10.75;3.88;;;3.40;66.70;;;;;;5034329;28;20033;-68
2022/11/11 02:58:24;;;;;;;9.95;4.90;;;3.40;66.10;;;;;;5031123;28;20026;-68
2022/11/11 03:00:52;;;;;;;7.95;3.97;;;3.40;65.50;;;;;;5035674;28;20029;-67
2022/11/11 03:03:18;;;;;;;9.52;4.65;;;3.50;65.80;;;;;;5029326;28;20033;-67
2022/11/11 03:05:47;;;;;;;6.80;3.10;;;3.50;66.00;;;;;;5031453;28;20029;-68
2022/11/11 03:08:13;;;;;;;6.05;2.83;;;3.40;66.40;;;;;;5030549;28;20022;-68
2022/11/11 03:10:38;;;;;;;8.68;4.00;;;3.30;66.00;;;;;;5015271;28;20034;-68
2022/11/11 03:13:04;;;;;;;5.93;2.67;;;3.30;65.80;;;;;;5030372;28;20418;-69
2022/11/11 03:15:30;;;;;;;7.55;3.67;;;3.30;65.60;;;;;;5035016;28;20017;-70
2022/11/11 03:17:55;;;;;;;7.30;3.03;;;3.30;65.80;;;;;;5029917;28;20037;-68
2022/11/11 03:23:07;;;;;;;7.70;4.38;;;3.40;65.60;;;;;;5028552;28;20036;-68
2022/11/11 03:25:42;;;;;;;6.80;3.63;;;3.50;65.50;;;;;;5032827;28;20052;-68
2022/11/11 03:28:16;;;;;;;11.80;5.10;;;3.60;65.50;;;;;;5029129;28;20095;-69
2022/11/11 03:30:47;;;;;;;7.18;3.03;;;3.60;65.70;;;;;;5021807;28;20057;-68
2022/11/11 03:33:20;;;;;;;7.47;4.05;;;3.50;65.80;;;;;;5027244;28;20032;-67
2022/11/11 03:35:46;;;;;;;12.37;5.03;;;3.60;65.40;;;;;;5031110;28;20025;-68
2022/11/11 03:38:15;;;;;;;10.18;3.72;;;3.60;65.40;;;;;;5012776;28;20034;-68
2022/11/11 03:40:45;;;;;;;10.38;4.10;;;3.60;65.60;;;;;;5016753;28;20052;-68
2022/11/11 03:43:15;;;;;;;9.10;4.90;;;3.60;65.80;;;;;;5028711;28;20119;-69
2022/11/11 03:45:42;;;;;;;11.18;4.88;;;3.60;65.50;;;;;;5029124;28;20047;-69
2022/11/11 03:48:08;;;;;;;9.48;4.55;;;3.70;65.30;;;;;;5014840;28;20318;-69
2022/11/11 03:50:34;;;;;;;11.20;4.47;;;3.80;65.40;;;;;;5027407;28;20034;-69
2022/11/11 03:53:00;;;;;;;12.68;4.65;;;4.00;65.20;;;;;;5028596;28;20059;-68
2022/11/11 03:55:27;;;;;;;8.57;4.68;;;4.10;65.20;;;;;;5034943;28;20287;-68
2022/11/11 03:57:52;;;;;;;9.85;4.05;;;4.00;65.40;;;;;;5031778;28;20018;-68
2022/11/11 04:00:20;;;;;;;11.95;5.50;;;3.90;65.80;;;;;;5032678;28;20036;-69
2022/11/11 04:11:14;;;;;;;9.63;4.10;;;3.50;65.40;;;;;;5025593;28;20172;-70
2022/11/11 04:16:28;;;;;;;9.27;4.25;;;3.70;65.30;;;;;;5032597;28;20034;-70
2022/11/11 04:21:44;;;;;;;5.40;3.65;;;3.80;65.10;;;;;;5029832;28;20084;-67
2022/11/11 04:26:58;;;;;;;8.15;3.78;;;3.70;65.60;;;;;;5035997;28;20066;-69
2022/11/11 04:29:27;;;;;;;8.60;3.80;;;3.60;65.50;;;;;;5030692;28;20048;-68
2022/11/11 04:34:46;;;;;;;7.25;3.90;;;3.40;65.60;;;;;;5035201;28;20083;-68
2022/11/11 04:37:16;;;;;;;6.13;3.10;;;3.40;65.50;;;;;;5035165;28;20021;-68
2022/11/11 04:42:33;;;;;;;5.75;3.10;;;3.30;65.40;;;;;;5033259;28;20089;-68
2022/11/11 04:48:00;;;;;;;7.20;3.20;;;3.50;65.50;;;;;;5035630;28;20087;-68
2022/11/11 04:50:30;;;;;;;8.75;3.75;;;3.50;65.60;;;;;;5016802;28;20314;-68
2022/11/11 04:52:56;;;;;;;7.35;3.20;;;3.50;65.60;;;;;;5017859;28;20136;-68
2022/11/11 04:58:10;;;;;;;6.45;3.10;;;3.40;66.10;;;;;;5025393;28;20033;-68
2022/11/11 05:00:37;;;;;;;15.05;10.30;;;3.30;65.70;;;;;;5031508;28;20393;-68
2022/11/11 05:03:15;;;;;;;9.70;4.63;;;3.30;65.90;;;;;;5036597;28;20043;-68
2022/11/11 05:09:01;;;;;;;4.30;2.35;;;3.10;66.00;;;;;;5025572;28;20064;-69
2022/11/11 05:11:31;;;;;;;5.53;3.10;;;3.10;65.90;;;;;;5027657;28;20032;-68
2022/11/11 05:22:47;;;;;;;5.68;3.03;;;3.20;65.90;;;;;;5033551;28;20325;-69
2022/11/11 05:25:25;;;;;;;6.35;2.72;;;3.20;65.80;;;;;;5018862;28;20117;-68
2022/11/11 05:27:57;;;;;;;7.50;2.83;;;3.30;65.60;;;;;;5024135;28;20132;-69
2022/11/11 05:30:24;;;;;;;8.77;3.97;;;3.30;65.70;;;;;;5032285;28;20033;-68
2022/11/11 05:32:50;;;;;;;6.30;2.90;;;3.30;66.00;;;;;;5033658;28;20061;-69
2022/11/11 05:35:17;;;;;;;10.00;3.67;;;3.40;65.40;;;;;;5024747;28;20351;-68
2022/11/11 05:38:18;;;;;;;6.00;2.42;;;3.50;65.60;;;;;;5026700;28;20088;-69
2022/11/11 05:40:36;;;;;;;5.43;2.00;;;3.50;65.40;;;;;;5029765;28;20099;-69
2022/11/11 05:43:04;;;;;;;8.52;3.10;;;3.70;65.30;;;;;;5030820;28;20032;-69
2022/11/11 05:45:31;;;;;;;4.55;2.83;;;3.80;65.50;;;;;;5023962;28;20040;-68
2022/11/11 05:48:01;;;;;;;4.13;2.20;;;3.50;67.50;;;;;;5035447;28;20426;-69
2022/11/11 05:50:27;;;;;;;8.35;2.45;;;3.40;66.40;;;;;;5011625;28;20423;-69
2022/11/11 05:52:52;;;;;;;5.28;2.30;;;3.30;66.00;;;;;;5031100;28;20037;-69
2022/11/11 05:55:18;;;;;;;4.90;2.72;;;3.30;66.00;;;;;;5027835;28;20026;-69
2022/11/11 05:57:44;;;;;;;6.93;2.10;;;3.40;65.50;;;;;;5027270;28;20048;-69
2022/11/11 06:00:10;;;;;;;5.57;2.85;;;3.40;65.70;;;;;;5030739;28;20026;-69
2022/11/11 06:02:36;;;;;;;6.75;3.65;;;3.50;65.80;;;;;;5036519;28;20311;-69
2022/11/11 06:05:02;;;;;;;6.15;2.97;;;3.50;66.00;;;;;;5034581;28;20385;-69
2022/11/11 06:07:28;;;;;;;7.60;3.38;;;3.50;66.10;;;;;;5035385;28;20112;-69
2022/11/11 06:10:29;;;;;;;6.28;3.47;;;3.50;66.50;;;;;;5022189;28;20346;-69
2022/11/11 06:15:31;;;;;;;6.60;3.33;;;3.60;65.80;;;;;;5033826;28;20029;-69
2022/11/11 06:18:00;;;;;;;6.95;3.17;;;3.70;65.60;;;;;;5026513;28;20036;-69
2022/11/11 06:20:26;;;;;;;4.32;2.45;;;3.80;65.20;;;;;;5028975;28;20414;-69
2022/11/11 06:22:55;;;;;;;7.45;2.80;;;3.90;65.40;;;;;;5013982;28;20029;-69
2022/11/11 06:28:15;;;;;;;7.57;4.20;;;3.90;65.90;;;;;;5035651;28;20052;-69
2022/11/11 06:30:44;;;;;;;7.43;3.22;;;3.90;65.90;;;;;;5035416;28;20049;-69
2022/11/11 06:33:10;;;;;;;7.07;3.90;;;3.80;66.00;;;;;;5053118;28;20036;-68
2022/11/11 06:35:38;;;;;;;6.15;4.30;;;3.70;66.40;;;;;;5026827;28;20031;-68
2022/11/11 06:38:06;;;;;;;7.78;4.60;;;3.60;66.40;;;;;;5035308;28;20076;-70
2022/11/11 06:40:32;;;;;;;14.40;5.55;;;3.60;65.80;;;;;;5033467;28;20040;-70
2022/11/11 06:42:59;;;;;;;8.35;4.90;;;3.60;66.10;;;;;;5028676;28;20038;-70
2022/11/11 06:45:26;;;;;;;7.90;4.13;;;3.60;65.50;;;;;;5023328;28;20036;-69
2022/11/11 06:47:52;;;;;;;6.78;2.40;;;3.60;65.40;;;;;;5038783;28;20029;-69
2022/11/11 06:50:18;;;;;;;4.47;2.30;;;3.70;65.30;;;;;;5034860;28;20433;-69
2022/11/11 06:52:44;;;;;;;5.93;2.25;;;3.90;65.10;;;;;;5015956;28;20033;-69
2022/11/11 06:55:10;;;;;;;5.80;3.70;;;3.90;65.20;;;;;;5021745;28;20030;-70
2022/11/11 06:57:36;;;;;;;8.07;4.43;;;4.00;65.30;;;;;;5032407;28;20025;-70
2022/11/11 07:00:05;;;;;;;8.45;4.55;;;4.10;65.10;;;;;;5029828;28;20028;-69
2022/11/11 07:02:31;;;;;;;3.42;1.90;;;4.30;65.00;;;;;;5025007;28;20038;-70
2022/11/11 07:05:00;;;;;;;10.48;5.45;;;4.40;65.20;;;;;;5036014;28;20037;-69
2022/11/11 07:07:30;;;;;;;10.23;6.70;;;4.50;65.00;;;;;;5027700;28;20026;-69
2022/11/11 07:09:55;;;;;;;14.25;8.43;;;4.50;65.30;;;;;;5030419;28;20048;-69
2022/11/11 07:12:22;;;;;;;14.55;7.13;;;4.40;65.80;;;;;;5028681;28;20111;-68
2022/11/11 07:14:48;;;;;;;9.45;5.25;;;4.40;65.40;;;;;;5009245;28;20033;-68
2022/11/11 07:17:13;;;;;;;54.67;31.25;;;4.50;65.10;;;;;;5039372;28;20030;-69
2022/11/11 07:19:39;;;;;;;13.27;8.70;;;4.60;65.00;;;;;;5024336;28;20026;-68
2022/11/11 07:22:05;;;;;;;16.02;8.38;;;4.70;65.00;;;;;;5054492;28;20401;-68
2022/11/11 07:24:30;;;;;;;14.85;7.93;;;4.80;64.80;;;;;;5047479;28;20028;-69
2022/11/11 07:26:58;;;;;;;17.52;9.52;;;5.00;64.80;;;;;;5044716;28;20668;-69
2022/11/11 07:29:23;;;;;;;13.73;5.72;;;5.10;65.00;;;;;;5025781;28;20030;-69
2022/11/11 07:31:52;;;;;;;10.38;5.50;;;5.20;64.90;;;;;;5032799;28;20021;-69
2022/11/11 07:34:18;;;;;;;10.90;6.25;;;5.30;64.80;;;;;;5032648;28;20045;-69
2022/11/11 07:36:43;;;;;;;12.35;7.43;;;5.40;64.90;;;;;;5017828;28;20292;-69
2022/11/11 07:39:09;;;;;;;11.05;7.18;;;5.40;64.80;;;;;;5036575;28;20332;-68
2022/11/11 07:41:34;;;;;;;12.43;7.35;;;5.60;64.70;;;;;;5055274;28;20025;-69
2022/11/11 07:44:01;;;;;;;14.07;7.30;;;5.70;64.60;;;;;;5024254;28;20084;-69
2022/11/11 07:46:32;;;;;;;11.77;6.75;;;5.90;64.50;;;;;;5026955;28;20108;-69
2022/11/11 07:49:00;;;;;;;9.52;5.50;;;6.10;64.50;;;;;;5011407;28;20037;-70
2022/11/11 07:51:29;;;;;;;9.85;3.78;;;6.20;64.50;;;;;;5015790;28;20030;-70
2022/11/11 07:53:55;;;;;;;8.25;3.83;;;6.40;64.50;;;;;;5018578;28;20030;-69
2022/11/11 07:56:20;;;;;;;7.80;3.85;;;6.60;64.30;;;;;;5031962;28;20033;-69
2022/11/11 07:58:46;;;;;;;6.35;3.60;;;6.80;64.40;;;;;;5038676;28;20374;-69
2022/11/11 08:01:12;;;;;;;8.23;3.97;;;7.10;64.30;;;;;;5054909;28;20342;-69
2022/11/11 08:03:48;;;;;;;11.35;7.40;;;7.20;64.50;;;;;;5040647;28;20079;-69
2022/11/11 08:06:16;;;;;;;9.38;6.07;;;7.10;64.70;;;;;;5016454;28;20033;-70
2022/11/11 08:08:41;;;;;;;10.40;7.22;;;7.30;64.10;;;;;;5032493;28;20033;-69
2022/11/11 08:11:07;;;;;;;10.40;7.15;;;7.50;64.00;;;;;;5016900;28;20026;-69
2022/11/11 08:13:42;;;;;;;7.97;5.50;;;7.80;64.00;;;;;;5012826;28;20045;-69
2022/11/11 08:16:13;;;;;;;6.13;4.20;;;8.00;64.20;;;;;;5017799;28;20618;-69
2022/11/11 08:18:40;;;;;;;6.95;4.43;;;8.20;64.00;;;;;;5018354;28;20052;-69
2022/11/11 08:21:06;;;;;;;6.72;3.00;;;8.70;64.50;;;;;;5021944;28;20021;-70
2022/11/11 08:23:32;;;;;;;5.05;2.33;;;8.90;64.80;;;;;;5015663;28;20029;-69
2022/11/11 08:26:01;;;;;;;6.68;2.08;;;9.00;64.20;;;;;;5018746;28;20037;-68
2022/11/11 08:28:29;;;;;;;11.73;5.22;;;9.40;64.80;;;;;;5011279;28;21642;-68
2022/11/11 08:30:57;;;;;;;15.98;10.48;;;9.60;64.20;;;;;;5019667;28;20096;-68
2022/11/11 08:33:23;;;;;;;10.45;6.90;;;9.50;63.40;;;;;;5011736;28;20030;-68
2022/11/11 08:35:49;;;;;;;8.43;5.60;;;9.70;64.00;;;;;;5035894;28;20106;-69
2022/11/11 08:38:15;;;;;;;11.80;6.45;;;10.10;63.20;;;;;;5017633;28;20029;-69
2022/11/11 08:40:40;;;;;;;8.43;3.92;;;10.80;63.00;;;;;;5018692;28;20422;-69
2022/11/11 08:43:06;;;;;;;5.72;2.97;;;11.40;64.20;;;;;;5019690;28;20034;-69
2022/11/11 08:45:32;;;;;;;4.53;2.05;;;12.00;63.80;;;;;;5028030;28;20033;-69
2022/11/11 08:47:57;;;;;;;3.85;1.55;;;12.70;67.20;;;;;;5023187;28;20034;-69
2022/11/11 08:50:23;;;;;;;5.20;1.33;;;13.20;83.20;;;;;;5036793;28;20105;-69
2022/11/11 08:52:53;;;;;;;2.75;1.10;;;13.70;79.50;;;;;;5037852;28;20029;-69
2022/11/11 08:55:19;;;;;;;3.25;1.02;;;14.50;84.80;;;;;;5030831;28;20030;-69
2022/11/11 08:57:45;;;;;;;4.50;1.27;;;14.90;95.40;;;;;;5029300;28;20028;-69
2022/11/11 09:00:17;;;;;;;3.13;1.38;;;14.90;98.00;;;;;;5036732;28;20033;-68
2022/11/11 09:02:42;;;;;;;3.33;1.25;;;14.90;98.00;;;;;;5024288;28;20044;-68
2022/11/11 09:05:08;;;;;;;2.53;1.20;;;14.90;98.00;;;;;;5023312;28;20088;-69
2022/11/11 09:07:34;;;;;;;4.75;1.35;;;14.40;98.00;;;;;;5021081;28;20034;-68
2022/11/11 09:09:59;;;;;;;8.68;2.05;;;14.70;98.00;;;;;;5018290;28;20026;-68
2022/11/11 09:12:25;;;;;;;5.15;2.53;;;14.70;98.00;;;;;;5039291;28;20120;-68
2022/11/11 09:14:53;;;;;;;13.48;7.13;;;14.80;98.00;;;;;;5026057;28;20102;-68
2022/11/11 09:17:24;;;;;;;9.80;6.13;;;14.90;95.90;;;;;;5031917;28;20022;-68
2022/11/11 09:19:49;;;;;;;10.00;5.03;;;14.50;93.50;;;;;;5028260;28;20034;-68
2022/11/11 09:22:15;;;;;;;8.40;4.22;;;14.40;93.20;;;;;;5037359;28;20080;-68
2022/11/11 09:24:41;;;;;;;9.35;4.60;;;14.50;95.60;;;;;;5057756;28;20028;-67
2022/11/11 09:27:08;;;;;;;14.85;5.70;;;14.90;95.00;;;;;;5054776;28;20037;-67
2022/11/11 09:29:33;;;;;;;9.88;5.07;;;14.80;89.90;;;;;;5026320;28;20060;-69
2022/11/11 09:31:59;;;;;;;9.98;5.80;;;14.00;90.20;;;;;;5031336;28;20368;-69
2022/11/11 09:34:24;;;;;;;14.18;6.97;;;13.80;92.10;;;;;;5031584;28;20049;-69
2022/11/11 09:36:50;;;;;;;9.68;4.80;;;13.50;93.50;;;;;;5034893;28;20025;-66
2022/11/11 09:39:16;;;;;;;9.15;5.13;;;13.30;93.30;;;;;;5035989;28;20094;-68
2022/11/11 09:42:06;;;;;;;9.00;4.50;;;13.50;94.50;;;;;;5037731;28;20425;-66
2022/11/11 09:44:56;;;;;;;7.63;4.32;;;13.70;92.20;;;;;;5034497;28;20033;-68
2022/11/11 09:47:46;;;;;;;8.23;4.18;;;14.10;91.40;;;;;;5035716;28;20038;-66
2022/11/11 09:50:20;;;;;;;9.85;4.25;;;14.20;91.30;;;;;;5019941;28;20438;-67
2022/11/11 09:53:06;;;;;;;9.57;3.70;;;14.80;91.30;;;;;;5036095;28;20036;-68
2022/11/11 09:55:55;;;;;;;10.02;4.38;;;15.30;89.30;;;;;;4995171;28;20073;-68
2022/11/11 09:59:00;;;;;;;8.82;4.50;;;15.30;87.70;;;;;;5037497;28;20026;-68
2022/11/11 10:01:30;;;;;;;8.93;4.45;;;15.60;86.50;;;;;;4956499;28;20031;-69
2022/11/11 10:04:07;;;;;;;7.60;4.05;;;15.60;86.70;;;;;;5007789;28;20124;-68
2022/11/11 10:06:34;;;;;;;8.15;4.32;;;16.10;86.40;;;;;;5016811;28;20021;-69
2022/11/11 10:09:06;;;;;;;6.32;3.65;;;16.80;83.70;;;;;;5032764;28;20063;-68
2022/11/11 10:12:00;;;;;;;7.85;4.28;;;17.30;82.90;;;;;;5034729;28;20029;-68
2022/11/11 10:14:37;;;;;;;9.18;4.57;;;17.50;81.20;;;;;;5017244;28;20101;-69
2022/11/11 10:17:29;;;;;;;9.15;4.10;;;18.30;80.50;;;;;;5017391;28;20123;-69
2022/11/11 10:20:15;;;;;;;6.43;3.55;;;18.40;79.20;;;;;;5001232;28;20113;-68
2022/11/11 10:22:43;;;;;;;7.18;3.13;;;18.30;80.20;;;;;;5016903;28;20029;-69
2022/11/11 10:25:12;;;;;;;10.68;4.00;;;18.20;79.30;;;;;;5017443;28;20300;-68
2022/11/11 10:27:43;;;;;;;6.80;3.20;;;17.50;81.10;;;;;;5016758;28;20042;-69
2022/11/11 10:30:29;;;;;;;7.07;3.58;;;17.40;82.50;;;;;;5017183;28;20057;-68
2022/11/11 10:33:02;;;;;;;7.15;3.22;;;17.50;82.30;;;;;;5030766;28;20029;-68
2022/11/11 10:35:31;;;;;;;6.13;2.40;;;17.60;82.20;;;;;;5036592;28;20071;-68
2022/11/11 10:38:14;;;;;;;5.43;2.30;;;17.50;82.30;;;;;;5032773;28;20021;-68
2022/11/11 10:40:50;;;;;;;7.70;2.70;;;17.10;82.60;;;;;;5036511;28;20056;-68
2022/11/11 10:43:44;;;;;;;4.60;2.40;;;16.40;85.10;;;;;;5018154;28;20022;-70
2022/11/11 10:46:41;;;;;;;10.27;3.72;;;16.30;86.10;;;;;;5008500;28;20084;-68
2022/11/11 10:49:17;;;;;;;6.20;3.50;;;16.00;86.30;;;;;;5016781;28;20447;-68
2022/11/11 10:52:16;;;;;;;6.78;3.75;;;15.50;87.30;;;;;;5025923;28;20471;-68
2022/11/11 10:55:10;;;;;;;9.48;4.60;;;15.30;89.00;;;;;;5032464;28;20382;-68
2022/11/11 10:57:52;;;;;;;9.80;3.83;;;15.20;88.90;;;;;;5011198;28;20481;-69
2022/11/11 11:00:18;;;;;;;7.45;3.20;;;15.00;88.80;;;;;;5016946;28;20449;-69
2022/11/11 11:03:04;;;;;;;8.85;3.63;;;14.70;89.60;;;;;;5018606;28;20038;-69
2022/11/11 11:06:09;;;;;;;7.25;3.63;;;14.70;90.90;;;;;;5035022;28;20030;-69
2022/11/11 11:08:43;;;;;;;7.40;3.88;;;14.20;92.00;;;;;;5014586;28;20033;-68
2022/11/11 11:11:18;;;;;;;11.55;5.35;;;13.90;92.60;;;;;;5004866;28;20057;-69
2022/11/11 11:13:58;;;;;;;8.25;4.50;;;13.70;93.60;;;;;;5016383;28;20026;-69
2022/11/11 11:16:49;;;;;;;10.18;5.00;;;13.70;94.10;;;;;;5016213;28;20029;-68
2022/11/11 11:19:24;;;;;;;11.07;4.75;;;13.80;93.70;;;;;;5033211;28;20112;-68
2022/11/11 11:21:52;;;;;;;10.40;4.93;;;13.90;93.80;;;;;;5015756;28;20030;-68
2022/11/11 11:24:20;;;;;;;10.77;4.55;;;13.90;92.60;;;;;;5016272;28;20369;-68
2022/11/11 11:26:51;;;;;;;9.18;4.70;;;14.00;93.20;;;;;;5033227;28;20449;-69
2022/11/11 11:29:37;;;;;;;9.65;4.72;;;14.30;92.30;;;;;;5031831;28;20037;-67
2022/11/11 11:32:31;;;;;;;9.85;5.15;;;14.80;91.20;;;;;;5016024;28;20084;-68
2022/11/11 11:34:57;;;;;;;9.15;4.60;;;15.20;89.50;;;;;;5008554;28;20041;-68
2022/11/11 11:37:24;;;;;;;10.23;5.10;;;15.60;88.00;;;;;;5014543;28;20028;-69
2022/11/11 11:40:02;;;;;;;11.52;5.15;;;16.00;87.80;;;;;;5016165;28;20026;-69
2022/11/11 11:42:35;;;;;;;11.00;5.13;;;16.20;87.50;;;;;;5015994;28;20022;-68
2022/11/11 11:45:22;;;;;;;16.50;7.40;;;15.70;87.60;;;;;;5016302;28;20025;-68
2022/11/11 11:47:53;;;;;;;16.75;8.60;;;15.40;89.00;;;;;;5025915;28;20048;-68
2022/11/11 11:50:39;;;;;;;18.35;8.10;;;15.30;89.10;;;;;;5024632;28;20087;-69
2022/11/11 11:53:08;;;;;;;16.90;7.05;;;15.30;90.20;;;;;;5029864;28;20062;-69
2022/11/11 11:55:53;;;;;;;10.93;4.32;;;15.30;90.00;;;;;;5016172;28;20057;-68
2022/11/11 11:58:37;;;;;;;10.82;5.53;;;15.30;90.20;;;;;;5015975;28;20348;-68
2022/11/11 12:01:14;;;;;;;9.55;5.30;;;14.90;90.90;;;;;;5032108;28;20017;-68
2022/11/11 12:04:11;;;;;;;9.93;5.60;;;14.90;91.30;;;;;;5024958;28;20038;-69
2022/11/11 12:06:42;;;;;;;11.27;5.55;;;14.80;91.00;;;;;;5014894;28;20032;-68
2022/11/11 12:09:22;;;;;;;9.00;4.97;;;14.60;91.50;;;;;;5015948;28;20057;-68
2022/11/11 12:11:58;;;;;;;8.02;4.97;;;14.60;92.20;;;;;;5015552;28;20073;-68
2022/11/11 12:14:33;;;;;;;10.13;4.82;;;14.60;92.10;;;;;;5016003;28;20022;-67
2022/11/11 12:17:33;;;;;;;10.07;4.80;;;14.60;91.80;;;;;;5018210;28;20054;-68
2022/11/11 12:20:09;;;;;;;7.95;4.80;;;14.80;91.90;;;;;;5019527;28;20156;-67
2022/11/11 12:22:43;;;;;;;7.43;4.40;;;15.10;90.90;;;;;;5018257;28;20030;-68
2022/11/11 12:25:27;;;;;;;9.77;4.93;;;15.20;90.80;;;;;;5019517;28;20022;-67
2022/11/11 12:28:02;;;;;;;;;;;15.20;90.70;;;;;;5019654;28;20042;-71
2022/11/11 12:30:32;;;;;;;8.00;4.25;;;15.30;90.50;;;;;;5019321;28;19917;-69
2022/11/11 12:33:18;;;;;;;8.10;4.38;;;15.70;89.80;;;;;;5019139;28;20033;-68
2022/11/11 12:36:11;;;;;;;7.80;4.47;;;16.00;88.30;;;;;;5019343;28;20018;-68
2022/11/11 12:38:56;;;;;;;10.77;4.68;;;16.10;87.10;;;;;;5017960;28;20351;-69
2022/11/11 12:41:35;;;;;;;9.18;4.47;;;16.00;88.10;;;;;;5019245;28;20072;-68
2022/11/11 12:44:11;;;;;;;6.63;4.00;;;15.80;89.20;;;;;;5019040;28;20323;-68
2022/11/11 12:46:45;;;;;;;12.20;6.82;;;15.70;89.50;;;;;;5038565;28;20030;-68
2022/11/11 12:49:36;;;;;;;15.20;7.20;;;15.30;90.10;;;;;;5037072;28;20104;-69
2022/11/11 12:52:15;;;;;;;12.13;6.07;;;15.40;91.00;;;;;;5037686;28;20025;-68
2022/11/11 12:54:41;;;;;;;11.32;4.10;;;15.30;90.30;;;;;;5038698;28;20022;-69
2022/11/11 12:57:17;;;;;;;9.23;4.45;;;15.20;90.40;;;;;;5038675;28;20079;-69
2022/11/11 13:00:21;;;;;;;10.52;5.57;;;14.90;91.10;;;;;;5038760;28;20040;-69
2022/11/11 13:03:08;;;;;;;11.48;4.88;;;14.90;92.30;;;;;;5018729;28;20493;-69
2022/11/11 13:05:54;;;;;;;8.40;4.28;;;14.90;92.60;;;;;;5018819;28;20033;-69
2022/11/11 13:08:32;;;;;;;9.07;4.38;;;15.00;91.70;;;;;;5017511;28;20033;-69
2022/11/11 13:11:45;;;;;;;9.90;4.05;;;15.10;91.50;;;;;;5018601;28;20037;-69
2022/11/11 13:14:54;;;;;;;9.50;4.13;;;15.00;91.30;;;;;;4974794;28;20046;-69
2022/11/11 13:17:20;;;;;;;8.80;3.50;;;15.00;91.50;;;;;;4989121;28;20427;-69
2022/11/11 13:20:16;;;;;;;8.07;4.45;;;15.10;92.20;;;;;;5018591;28;20018;-68
2022/11/11 13:22:49;;;;;;;11.15;5.63;;;15.00;90.60;;;;;;5017893;28;20029;-68
2022/11/11 13:25:22;;;;;;;9.98;5.22;;;14.70;91.50;;;;;;5018463;28;20380;-68
2022/11/11 13:28:27;;;;;;;9.95;4.80;;;14.50;92.20;;;;;;5024868;28;20104;-68
2022/11/11 13:31:17;;;;;;;9.35;3.40;;;14.20;92.80;;;;;;4957876;29;20100;-68
2022/11/11 13:33:50;;;;;;;7.35;3.08;;;13.90;93.70;;;;;;5015884;28;20481;-69
2022/11/11 13:36:20;;;;;;;8.00;3.05;;;13.80;93.50;;;;;;5018190;28;20022;-68
2022/11/11 13:39:02;;;;;;;8.65;3.22;;;13.70;93.70;;;;;;5032569;28;20112;-68
2022/11/11 13:41:33;;;;;;;6.57;3.38;;;13.70;94.10;;;;;;5037758;28;20441;-68
2022/11/11 13:44:03;;;;;;;8.68;2.60;;;13.70;94.50;;;;;;5037816;28;20025;-69
2022/11/11 13:46:32;;;;;;;6.95;3.13;;;13.70;93.30;;;;;;5037855;28;20432;-69
2022/11/11 13:48:59;;;;;;;8.38;3.50;;;13.70;94.10;;;;;;5026558;28;20034;-68
2022/11/11 13:51:30;;;;;;;7.47;3.45;;;13.70;93.40;;;;;;5017847;28;20311;-68
2022/11/11 13:53:58;;;;;;;5.90;2.83;;;13.60;94.30;;;;;;5016980;28;20017;-69
2022/11/11 13:56:42;;;;;;;8.07;3.72;;;13.60;93.90;;;;;;5020821;28;20065;-69
2022/11/11 13:59:27;;;;;;;6.40;3.35;;;13.60;94.90;;;;;;5037543;28;20025;-68
2022/11/11 14:02:12;;;;;;;9.10;3.63;;;13.70;93.80;;;;;;5037520;28;20033;-68
2022/11/11 14:05:07;;;;;;;7.40;3.30;;;13.80;94.00;;;;;;5036714;28;20068;-68
2022/11/11 14:07:48;;;;;;;7.72;3.33;;;13.80;93.80;;;;;;5025059;28;20095;-69
2022/11/11 14:10:16;;;;;;;7.85;4.40;;;13.80;94.40;;;;;;5017531;28;20101;-69
2022/11/11 14:12:43;;;;;;;6.53;3.58;;;13.70;93.80;;;;;;5017465;28;20056;-69
2022/11/11 14:15:32;;;;;;;8.00;3.97;;;13.60;93.70;;;;;;5017342;28;20022;-68
2022/11/11 14:17:58;;;;;;;6.60;3.53;;;13.40;94.30;;;;;;5017361;28;20988;-68
2022/11/11 14:20:40;;;;;;;9.27;3.72;;;13.30;94.60;;;;;;5017499;28;20084;-69
2022/11/11 14:23:17;;;;;;;7.70;3.08;;;13.30;94.30;;;;;;5016376;28;20425;-68
2022/11/11 14:26:10;;;;;;;7.05;2.75;;;13.30;94.10;;;;;;5017216;28;20033;-68
2022/11/11 14:28:50;;;;;;;7.03;3.05;;;13.10;94.30;;;;;;5015359;28;20129;-69